Nagatomaru — JD3612 — position and weather

sailwx.info

Track history (hours):
 
Tides and Currents Weather Stations Pressure Air Temp Water Temp Dewpoint Dewpoint Depression Visibility Wind Speed Wind Dir Waves Ship Positions

Nagatomaru

Last reported at 2018-Jun-24 05:30 UTC. Time now 2018-Jun-24 05:31 UTC.
Position N 35°20' E 139°42'.

Length 38 m; draft 3 m.

Type: Tug. MMSI: 431005054.

Date/timePositionNaut miles runAvg speedWind from/ knotsBaromVisibWave heightAir tempDewpointWater temp
2018-Jun-24 05:30N 35°20' E 139°42'3 6.4
2018-Jun-24 05:00N 35°23' E 139°40'4 7.5
2018-Jun-24 04:30N 35°20' E 139°42'3 0.5
2018-Jun-23 23:08N 35°17' E 139°41'0 0.2
2018-Jun-23 22:59N 35°17' E 139°41'0 0.0
2018-Jun-23 22:30N 35°17' E 139°41'0 0.0
2018-Jun-23 22:00N 35°17' E 139°41'0 0.0
2018-Jun-23 21:30N 35°17' E 139°41'0 0.0
2018-Jun-23 21:00N 35°17' E 139°41'0 0.0
2018-Jun-23 20:30N 35°17' E 139°41'0 0.0
2018-Jun-23 18:09N 35°17' E 139°41'0 0.0
2018-Jun-23 17:23N 35°17' E 139°41'0 0.0
2018-Jun-23 13:41N 35°17' E 139°41'0 0.0
2018-Jun-23 13:29N 35°17' E 139°41'0 0.0
2018-Jun-23 12:56N 35°17' E 139°41'0 0.0
2018-Jun-23 11:45N 35°17' E 139°41'0 0.0
2018-Jun-23 11:30N 35°17' E 139°41'0 0.0
2018-Jun-23 10:54N 35°17' E 139°41'0 0.0
2018-Jun-23 10:26N 35°17' E 139°41'0 0.0
2018-Jun-23 09:58N 35°17' E 139°41'0 0.0
2018-Jun-23 09:28N 35°17' E 139°41'0 0.0
2018-Jun-23 09:00N 35°17' E 139°41'0 0.0
2018-Jun-23 08:29N 35°17' E 139°41'0 0.0
2018-Jun-23 08:00N 35°17' E 139°41'0 0.0
2018-Jun-23 07:30N 35°17' E 139°41'0 0.0
2018-Jun-23 07:00N 35°17' E 139°41'0 0.0
2018-Jun-23 06:30N 35°17' E 139°41'0 0.0
2018-Jun-23 05:59N 35°17' E 139°41'0 0.0
2018-Jun-23 05:30N 35°17' E 139°41'0 0.0
2018-Jun-23 05:00N 35°17' E 139°41'0 0.0
2018-Jun-23 04:27N 35°17' E 139°41'0 0.0
2018-Jun-23 04:00N 35°17' E 139°41'0 0.0
2018-Jun-23 03:29N 35°17' E 139°41'0 0.0
2018-Jun-23 02:53N 35°17' E 139°41'0 0.0
2018-Jun-23 02:29N 35°17' E 139°41'0 0.0
2018-Jun-23 02:00N 35°17' E 139°41'0 0.0
2018-Jun-23 01:30N 35°17' E 139°41'3 6.0
2018-Jun-23 01:00N 35°20' E 139°42'5 9.2
2018-Jun-23 00:30N 35°23' E 139°46'3 6.3
2018-Jun-23 00:00N 35°20' E 139°44'10 6.2
2018-Jun-22 22:27N 35°11' E 139°47'3 6.3
2018-Jun-22 21:57N 35°13' E 139°46'5 9.8
2018-Jun-22 21:29N 35°18' E 139°44'3 5.8
2018-Jun-22 21:00N 35°20' E 139°43'11 8.0
2018-Jun-22 19:39N 35°10' E 139°47'2 8.1
2018-Jun-22 19:25N 35°12' E 139°46'3 2.1
2018-Jun-22 18:04N 35°13' E 139°43'0 0.0
2018-Jun-22 17:50N 35°13' E 139°43'0 0.0
2018-Jun-22 16:19N 35°13' E 139°43'0 0.0
2018-Jun-22 15:06N 35°13' E 139°43'0 0.0
2018-Jun-22 15:00N 35°13' E 139°43'0 0.0
2018-Jun-22 11:16N 35°13' E 139°43'2 9.1
2018-Jun-22 11:00N 35°12' E 139°46'5 8.5
2018-Jun-22 10:28N 35°17' E 139°45'612.3
2018-Jun-22 10:00N 35°22' E 139°42'4 8.6
2018-Jun-22 09:30N 35°26' E 139°42'0 0.8
2018-Jun-22 09:00N 35°26' E 139°42'0 0.1
2018-Jun-22 08:30N 35°26' E 139°42'2 4.6
2018-Jun-22 08:00N 35°24' E 139°42'510.2
2018-Jun-22 07:30N 35°19' E 139°43'710.2
2018-Jun-22 06:49N 35°12' E 139°46'3 9.3
2018-Jun-22 06:30N 35°15' E 139°46'612.2
2018-Jun-22 06:00N 35°20' E 139°42'4 8.6
2018-Jun-22 05:30N 35°24' E 139°40'1 1.5
2018-Jun-22 05:00N 35°24' E 139°39'0 0.2
2018-Jun-22 04:30N 35°24' E 139°39'4 8.2
2018-Jun-22 04:00N 35°20' E 139°41'3 6.0
2018-Jun-22 03:30N 35°17' E 139°41'0 0.0
2018-Jun-22 03:00N 35°17' E 139°41'0 0.1
2018-Jun-22 02:30N 35°17' E 139°41'0 0.0
2018-Jun-22 01:58N 35°17' E 139°41'0 0.1
2018-Jun-22 01:30N 35°17' E 139°41'0 0.0
2018-Jun-22 01:00N 35°17' E 139°41'0 0.0
2018-Jun-22 00:29N 35°17' E 139°41'0 0.0
2018-Jun-22 00:00N 35°17' E 139°41'0 0.1
2018-Jun-21 23:30N 35°17' E 139°41'0 0.0
2018-Jun-21 16:57N 35°17' E 139°41'0 0.0
2018-Jun-21 16:20N 35°17' E 139°41'0 0.0
2018-Jun-21 15:59N 35°17' E 139°41'0 0.0
2018-Jun-21 15:27N 35°17' E 139°41'0 0.0
2018-Jun-21 14:52N 35°17' E 139°41'0 0.0
2018-Jun-21 13:14N 35°17' E 139°41'0 0.0
2018-Jun-21 03:27N 35°17' E 139°41'0 0.0
2018-Jun-21 02:59N 35°17' E 139°41'0 0.0
2018-Jun-21 02:24N 35°17' E 139°41'2 5.0
2018-Jun-21 02:00N 35°19' E 139°42'3 6.7
2018-Jun-21 01:30N 35°22' E 139°42'4 8.5
2018-Jun-21 01:00N 35°18' E 139°44'5 3.5
2018-Jun-20 23:39N 35°14' E 139°46'314.5
2018-Jun-20 23:25N 35°17' E 139°44'614.5
2018-Jun-20 23:01N 35°22' E 139°42'3 5.7
2018-Jun-20 22:31N 35°20' E 139°43'11 9.4
2018-Jun-20 21:22N 35°10' E 139°47'3 7.2
2018-Jun-20 20:54N 35°13' E 139°46'2 4.7
2018-Jun-20 20:26N 35°13' E 139°43'0 0.0
2018-Jun-20 20:00N 35°13' E 139°43'0 0.0
2018-Jun-20 19:30N 35°13' E 139°43'0 0.0
2018-Jun-20 19:00N 35°13' E 139°43'0 0.0
2018-Jun-20 18:30N 35°13' E 139°43'0 0.0
2018-Jun-20 18:00N 35°13' E 139°43'0 0.0
2018-Jun-20 17:30N 35°13' E 139°43'0 0.0
2018-Jun-20 17:00N 35°13' E 139°43'0 0.0
2018-Jun-20 16:30N 35°13' E 139°43'0 0.0
2018-Jun-20 16:00N 35°13' E 139°43'0 0.0
2018-Jun-20 15:30N 35°13' E 139°43'0 0.0
2018-Jun-20 15:00N 35°13' E 139°43'0 0.0
2018-Jun-20 14:29N 35°13' E 139°43'0 0.0
2018-Jun-20 14:00N 35°13' E 139°43'0 0.0
2018-Jun-20 13:29N 35°13' E 139°43'0 0.0
2018-Jun-20 13:00N 35°13' E 139°43'0 0.0
2018-Jun-20 12:30N 35°13' E 139°43'0 0.0
2018-Jun-20 12:00N 35°13' E 139°43'0 0.0
2018-Jun-20 11:29N 35°13' E 139°43'0 0.0
2018-Jun-20 11:00N 35°13' E 139°43'0 0.0
2018-Jun-20 10:30N 35°13' E 139°43'0 0.4
2018-Jun-20 09:58N 35°13' E 139°43'3 5.7
2018-Jun-20 09:30N 35°14' E 139°46'612.5
2018-Jun-20 09:00N 35°20' E 139°43'612.5
2018-Jun-20 08:30N 35°26' E 139°42'1 1.4
2018-Jun-20 08:00N 35°26' E 139°42'0 0.5
2018-Jun-20 07:31N 35°26' E 139°42'2 3.9
2018-Jun-20 07:00N 35°27' E 139°40'0 0.8
2018-Jun-20 06:29N 35°27' E 139°40'0 0.6
2018-Jun-20 06:00N 35°27' E 139°40'2 3.9
2018-Jun-20 05:30N 35°26' E 139°42'1 1.4
2018-Jun-20 05:00N 35°26' E 139°42'4 8.3
2018-Jun-20 04:30N 35°21' E 139°41'4 7.9
2018-Jun-20 03:57N 35°17' E 139°41'0 0.0
2018-Jun-20 03:30N 35°17' E 139°41'0 0.0
2018-Jun-20 03:00N 35°17' E 139°41'0 0.0
2018-Jun-20 02:30N 35°17' E 139°41'0 0.0
2018-Jun-20 02:00N 35°17' E 139°41'0 0.0
2018-Jun-20 01:29N 35°17' E 139°41'0 0.0
2018-Jun-20 01:00N 35°17' E 139°41'0 0.0
2018-Jun-20 00:30N 35°17' E 139°41'0 0.0
2018-Jun-20 00:00N 35°17' E 139°41'0 0.0
2018-Jun-19 23:29N 35°17' E 139°41'0 0.3
2018-Jun-19 23:00N 35°17' E 139°41'0 0.3
2018-Jun-19 22:27N 35°17' E 139°41'0 0.0
2018-Jun-19 22:00N 35°17' E 139°41'0 0.0
2018-Jun-19 21:28N 35°17' E 139°41'0 0.0
2018-Jun-19 21:00N 35°17' E 139°41'0 0.0
2018-Jun-19 20:30N 35°17' E 139°41'0 0.0
2018-Jun-19 20:00N 35°17' E 139°41'0 0.0
2018-Jun-19 19:30N 35°17' E 139°41'0 0.0
2018-Jun-19 19:00N 35°17' E 139°41'0 0.0
2018-Jun-19 18:30N 35°17' E 139°41'0 0.0
2018-Jun-19 17:59N 35°17' E 139°41'0 0.0
2018-Jun-19 17:30N 35°17' E 139°41'0 0.0
2018-Jun-19 17:00N 35°17' E 139°41'0 0.0
2018-Jun-19 16:29N 35°17' E 139°41'0 0.0
2018-Jun-19 16:00N 35°17' E 139°41'0 0.0
2018-Jun-19 15:30N 35°17' E 139°41'0 0.0
2018-Jun-19 14:59N 35°17' E 139°41'0 0.0
2018-Jun-19 14:26N 35°17' E 139°41'0 0.0
2018-Jun-19 14:00N 35°17' E 139°41'0 0.0
2018-Jun-19 13:28N 35°17' E 139°41'0 0.0
2018-Jun-19 12:59N 35°17' E 139°41'0 0.0
2018-Jun-19 12:29N 35°17' E 139°41'0 0.0
2018-Jun-19 12:00N 35°17' E 139°41'0 0.0
2018-Jun-19 11:30N 35°17' E 139°41'0 0.0
2018-Jun-19 10:55N 35°17' E 139°41'0 0.0
2018-Jun-19 10:30N 35°17' E 139°41'0 0.0
2018-Jun-19 09:59N 35°17' E 139°41'0 0.0
2018-Jun-19 09:29N 35°17' E 139°41'0 0.0
2018-Jun-19 09:00N 35°17' E 139°41'0 0.0
2018-Jun-19 08:29N 35°17' E 139°41'0 0.0
2018-Jun-19 08:00N 35°17' E 139°41'0 0.0
2018-Jun-19 07:30N 35°17' E 139°41'0 0.0
2018-Jun-19 07:00N 35°17' E 139°41'0 0.0
2018-Jun-19 06:30N 35°17' E 139°41'0 0.0
2018-Jun-19 06:00N 35°17' E 139°41'0 0.0
2018-Jun-19 05:30N 35°17' E 139°41'0 0.0
2018-Jun-19 05:00N 35°17' E 139°41'0 0.0
2018-Jun-19 04:30N 35°17' E 139°41'0 0.0
2018-Jun-19 04:00N 35°17' E 139°41'0 0.0
2018-Jun-19 03:30N 35°17' E 139°41'0 0.0
2018-Jun-19 03:00N 35°17' E 139°41'4 7.4
2018-Jun-19 02:30N 35°16' E 139°45'4 8.2
2018-Jun-19 02:00N 35°12' E 139°46'611.6
2018-Jun-19 01:30N 35°18' E 139°45'611.5
2018-Jun-19 01:00N 35°23' E 139°42'5 9.5
2018-Jun-19 00:30N 35°26' E 139°47'5 9.8
2018-Jun-19 00:00N 35°21' E 139°49'0 0.7
2018-Jun-18 23:31N 35°21' E 139°49'2 3.6
2018-Jun-18 23:00N 35°22' E 139°47'610.7
2018-Jun-18 22:27N 35°18' E 139°42'1 2.5
2018-Jun-18 22:00N 35°17' E 139°41'0 0.0
2018-Jun-18 21:30N 35°17' E 139°41'0 0.0
2018-Jun-18 20:59N 35°17' E 139°41'0 0.0
2018-Jun-18 20:30N 35°17' E 139°41'0 0.0
2018-Jun-18 20:00N 35°17' E 139°41'0 0.0
2018-Jun-18 19:30N 35°17' E 139°41'0 0.0
2018-Jun-18 18:54N 35°17' E 139°41'0 0.0
2018-Jun-18 18:30N 35°17' E 139°41'0 0.0
2018-Jun-18 18:00N 35°17' E 139°41'0 0.0
2018-Jun-18 17:30N 35°17' E 139°41'0 0.0
2018-Jun-18 17:00N 35°17' E 139°41'0 0.0
2018-Jun-18 16:30N 35°17' E 139°41'0 0.0
2018-Jun-18 16:00N 35°17' E 139°41'0 0.0
2018-Jun-18 15:30N 35°17' E 139°41'0 0.0
2018-Jun-18 15:00N 35°17' E 139°41'0 0.0
2018-Jun-18 14:30N 35°17' E 139°41'0 0.0
2018-Jun-18 14:00N 35°17' E 139°41'0 0.0
2018-Jun-18 13:30N 35°17' E 139°41'0 0.0
2018-Jun-18 12:59N 35°17' E 139°41'0 0.0
2018-Jun-18 12:30N 35°17' E 139°41'0 0.0
2018-Jun-18 11:58N 35°17' E 139°41'0 0.0
2018-Jun-18 11:25N 35°17' E 139°41'0 0.0
2018-Jun-18 11:00N 35°17' E 139°41'0 0.0
2018-Jun-18 10:30N 35°17' E 139°41'0 0.0
2018-Jun-18 10:00N 35°17' E 139°41'0 0.0
2018-Jun-18 09:30N 35°17' E 139°41'0 0.0
2018-Jun-18 09:00N 35°17' E 139°41'3 6.7
2018-Jun-18 08:30N 35°16' E 139°45'3 5.5
2018-Jun-18 08:00N 35°14' E 139°46'611.4
2018-Jun-18 07:30N 35°19' E 139°43'5 9.2
2018-Jun-18 07:00N 35°23' E 139°41'0 0.8
2018-Jun-18 06:30N 35°23' E 139°40'1 1.3
2018-Jun-18 06:00N 35°23' E 139°40'0 0.0
2018-Jun-18 05:30N 35°23' E 139°40'0 0.0
2018-Jun-18 05:00N 35°23' E 139°40'0 0.0
2018-Jun-18 04:30N 35°23' E 139°40'0 0.0
2018-Jun-18 04:00N 35°23' E 139°40'3 5.5
2018-Jun-18 03:29N 35°20' E 139°41'510.3
2018-Jun-18 02:59N 35°16' E 139°45'2 4.4
2018-Jun-18 02:29N 35°14' E 139°46'612.3
2018-Jun-18 02:00N 35°19' E 139°43'612.0
2018-Jun-18 01:30N 35°25' E 139°43'3 5.5
2018-Jun-18 01:00N 35°28' E 139°44'0 0.3
2018-Jun-18 00:30N 35°28' E 139°44'1 1.1
2018-Jun-18 00:00N 35°27' E 139°44'4 8.1
2018-Jun-17 23:30N 35°23' E 139°46'510.7
2018-Jun-17 23:00N 35°18' E 139°45'6 6.0
2018-Jun-17 21:57N 35°12' E 139°46'710.9
2018-Jun-17 21:22N 35°18' E 139°42'2 4.5
2018-Jun-17 21:00N 35°17' E 139°41'0 0.0
2018-Jun-17 20:28N 35°17' E 139°41'0 0.0
2018-Jun-17 20:00N 35°17' E 139°41'0 0.0
2018-Jun-17 19:30N 35°17' E 139°41'0 0.0
2018-Jun-17 19:00N 35°17' E 139°41'0 0.0
2018-Jun-17 18:30N 35°17' E 139°41'0 0.0
2018-Jun-17 18:00N 35°17' E 139°41'0 0.0
2018-Jun-17 17:28N 35°17' E 139°41'0 0.0
2018-Jun-17 17:00N 35°17' E 139°41'0 0.0
2018-Jun-17 16:30N 35°17' E 139°41'0 0.0
2018-Jun-17 16:00N 35°17' E 139°41'0 0.0
2018-Jun-17 15:30N 35°17' E 139°41'0 0.0
2018-Jun-17 14:58N 35°17' E 139°41'0 0.0
2018-Jun-17 14:28N 35°17' E 139°41'0 0.0
2018-Jun-17 13:52N 35°17' E 139°41'0 0.0
2018-Jun-17 13:29N 35°17' E 139°41'0 0.0
2018-Jun-17 12:34N 35°17' E 139°41'0 0.0
2018-Jun-17 12:30N 35°17' E 139°41'0 0.0
2018-Jun-17 11:59N 35°17' E 139°41'0 0.0
2018-Jun-17 11:19N 35°17' E 139°41'0 0.0
2018-Jun-17 10:41N 35°17' E 139°41'0 0.0
2018-Jun-17 10:29N 35°17' E 139°41'0 0.0
2018-Jun-17 06:03N 35°17' E 139°41'0 0.0
2018-Jun-17 05:54N 35°17' E 139°41'0 0.0
2018-Jun-17 05:30N 35°17' E 139°41'0 0.0
2018-Jun-17 05:00N 35°17' E 139°41'0 0.0
2018-Jun-17 04:30N 35°17' E 139°41'0 0.0
2018-Jun-17 04:00N 35°17' E 139°41'0 0.0
2018-Jun-17 03:30N 35°17' E 139°41'4 8.1
2018-Jun-17 03:00N 35°21' E 139°42'611.3
2018-Jun-17 02:30N 35°26' E 139°45'3 5.4
2018-Jun-17 02:00N 35°24' E 139°46'510.6
2018-Jun-17 01:30N 35°18' E 139°44'8 7.3
2018-Jun-17 00:21N 35°10' E 139°47'4 9.9
2018-Jun-16 23:54N 35°13' E 139°43'0 0.6
2018-Jun-16 23:29N 35°13' E 139°43'0 0.6
2018-Jun-16 22:59N 35°13' E 139°43'2 5.3
2018-Jun-16 22:30N 35°14' E 139°46'612.2
2018-Jun-16 22:00N 35°19' E 139°43'510.7
2018-Jun-16 21:31N 35°25' E 139°44'2 3.6
2018-Jun-16 21:01N 35°23' E 139°43'5 9.7
2018-Jun-16 20:31N 35°18' E 139°42'1 3.0
2018-Jun-16 20:00N 35°17' E 139°41'0 0.0
2018-Jun-16 19:30N 35°17' E 139°41'0 0.0
2018-Jun-16 19:00N 35°17' E 139°41'0 0.0
2018-Jun-16 18:30N 35°17' E 139°41'0 0.0
2018-Jun-16 17:58N 35°17' E 139°41'0 0.0
2018-Jun-16 17:26N 35°17' E 139°41'0 0.0
2018-Jun-16 17:00N 35°17' E 139°41'0 0.0
2018-Jun-16 16:29N 35°17' E 139°41'0 0.0
2018-Jun-16 15:59N 35°17' E 139°41'0 0.0
2018-Jun-16 15:28N 35°17' E 139°41'0 0.0
2018-Jun-16 15:00N 35°17' E 139°41'0 0.0
2018-Jun-16 14:29N 35°17' E 139°41'0 0.0
2018-Jun-16 13:57N 35°17' E 139°41'0 0.0
2018-Jun-16 13:21N 35°17' E 139°41'0 0.0
2018-Jun-16 12:46N 35°17' E 139°41'0 0.0
2018-Jun-16 12:30N 35°17' E 139°41'0 0.0
2018-Jun-16 11:58N 35°17' E 139°41'0 0.0
2018-Jun-16 11:28N 35°17' E 139°41'0 0.2
2018-Jun-16 11:00N 35°17' E 139°41'4 8.5
2018-Jun-16 10:30N 35°15' E 139°45'1 2.2
2018-Jun-16 10:00N 35°15' E 139°46'611.9
2018-Jun-16 09:30N 35°20' E 139°43'5 9.4
2018-Jun-16 09:00N 35°24' E 139°44'0 0.7
2018-Jun-16 08:30N 35°24' E 139°44'1 2.4
2018-Jun-16 08:00N 35°23' E 139°44'5 9.6
2018-Jun-16 07:30N 35°18' E 139°45'810.4
2018-Jun-16 06:42N 35°10' E 139°47'1 4.4
2018-Jun-16 06:30N 35°11' E 139°46'3 6.3
2018-Jun-16 05:57N 35°13' E 139°43'4 7.5
2018-Jun-16 05:21N 35°18' E 139°42'1 3.9
2018-Jun-16 05:00N 35°17' E 139°41'0 0.0
2018-Jun-16 04:30N 35°17' E 139°41'0 0.0
2018-Jun-16 04:00N 35°17' E 139°41'0 0.4
2018-Jun-16 03:30N 35°17' E 139°41'510.0
2018-Jun-16 03:01N 35°22' E 139°43'2 4.6
2018-Jun-16 02:30N 35°22' E 139°45'4 8.1
2018-Jun-16 02:00N 35°18' E 139°44'611.0
2018-Jun-16 01:27N 35°13' E 139°47'2 2.4
2018-Jun-16 00:42N 35°11' E 139°46'313.0
2018-Jun-16 00:30N 35°14' E 139°45'510.2
2018-Jun-16 00:00N 35°17' E 139°41'0 0.9
2018-Jun-15 23:30N 35°17' E 139°41'0 0.0
2018-Jun-15 23:00N 35°17' E 139°41'0 0.0
2018-Jun-15 22:30N 35°17' E 139°41'0 0.0
2018-Jun-15 20:53N 35°17' E 139°41'0 0.0
2018-Jun-15 16:16N 35°17' E 139°41'0 0.0
2018-Jun-15 15:52N 35°17' E 139°41'0 0.0
2018-Jun-15 15:25N 35°17' E 139°41'0 0.0
2018-Jun-15 07:49N 35°17' E 139°41'0 0.0
2018-Jun-15 07:30N 35°17' E 139°41'1 1.9
2018-Jun-15 07:00N 35°18' E 139°41'510.7
2018-Jun-15 06:30N 35°22' E 139°44'510.5
2018-Jun-15 06:00N 35°25' E 139°50'1 1.0
2018-Jun-15 04:41N 35°26' E 139°48'211.7
2018-Jun-15 04:30N 35°24' E 139°46'611.6
2018-Jun-15 04:00N 35°19' E 139°44'910.2
2018-Jun-15 03:09N 35°10' E 139°47'1 5.3
2018-Jun-15 03:01N 35°10' E 139°47'4 7.5
2018-Jun-15 02:27N 35°14' E 139°46'510.7
2018-Jun-15 02:00N 35°18' E 139°42'1 0.4
2018-Jun-14 23:11N 35°17' E 139°41'0 0.0
2018-Jun-14 23:00N 35°17' E 139°41'0 0.0
2018-Jun-14 22:27N 35°17' E 139°41'0 0.0
2018-Jun-14 22:00N 35°17' E 139°41'0 0.0
2018-Jun-14 21:30N 35°17' E 139°41'0 0.0
2018-Jun-14 21:00N 35°17' E 139°41'0 0.0
2018-Jun-14 20:28N 35°17' E 139°41'0 0.0
2018-Jun-14 19:59N 35°17' E 139°41'0 0.0
2018-Jun-14 19:30N 35°17' E 139°41'0 0.0
2018-Jun-14 18:59N 35°17' E 139°41'0 0.0
2018-Jun-14 18:18N 35°17' E 139°41'0 0.0
2018-Jun-14 17:41N 35°17' E 139°41'0 0.0
2018-Jun-14 17:23N 35°17' E 139°41'0 0.0
2018-Jun-14 16:58N 35°17' E 139°41'0 0.0
2018-Jun-14 16:29N 35°17' E 139°41'0 0.0
2018-Jun-14 15:54N 35°17' E 139°41'0 0.0
2018-Jun-14 15:28N 35°17' E 139°41'0 0.0
2018-Jun-14 15:00N 35°17' E 139°41'0 0.0
2018-Jun-14 14:30N 35°17' E 139°41'0 0.0
2018-Jun-14 13:59N 35°17' E 139°41'0 0.0
2018-Jun-14 13:30N 35°17' E 139°41'0 0.0
2018-Jun-14 13:00N 35°17' E 139°41'0 0.0
2018-Jun-14 12:29N 35°17' E 139°41'0 0.0
2018-Jun-14 11:59N 35°17' E 139°41'0 0.0
2018-Jun-14 11:30N 35°17' E 139°41'0 0.0
2018-Jun-14 11:00N 35°17' E 139°41'0 0.0
2018-Jun-14 10:30N 35°17' E 139°41'0 0.0
2018-Jun-14 09:56N 35°17' E 139°41'0 0.0
2018-Jun-14 09:29N 35°17' E 139°41'0 0.0
2018-Jun-14 08:59N 35°17' E 139°41'0 0.0
2018-Jun-14 08:13N 35°17' E 139°41'0 0.0
2018-Jun-14 07:58N 35°17' E 139°41'0 0.0
2018-Jun-14 07:27N 35°17' E 139°41'0 0.0
2018-Jun-14 06:51N 35°17' E 139°41'0 0.0
2018-Jun-14 06:27N 35°17' E 139°41'4 9.2
2018-Jun-14 06:00N 35°21' E 139°41'  
Track history (hours):
 
Tides and Currents Weather Stations Pressure Air Temp Water Temp Dewpoint Dewpoint Depression Visibility Wind Speed Wind Dir Waves Ship Positions

Nagatomaru

Last reported at 2018-Jun-24 05:30 UTC. Time now 2018-Jun-24 05:31 UTC.
Position N 35°20' E 139°42'.

Length 38 m; draft 3 m.

Type: Tug. MMSI: 431005054.

Date/timePositionNaut miles runAvg speedWind from/ knotsBaromVisibWave heightAir tempDewpointWater temp
2018-Jun-24 05:30N 35°20' E 139°42'3 6.4
2018-Jun-24 05:00N 35°23' E 139°40'4 7.5
2018-Jun-24 04:30N 35°20' E 139°42'3 0.5
2018-Jun-23 23:08N 35°17' E 139°41'0 0.2
2018-Jun-23 22:59N 35°17' E 139°41'0 0.0
2018-Jun-23 22:30N 35°17' E 139°41'0 0.0
2018-Jun-23 22:00N 35°17' E 139°41'0 0.0
2018-Jun-23 21:30N 35°17' E 139°41'0 0.0
2018-Jun-23 21:00N 35°17' E 139°41'0 0.0
2018-Jun-23 20:30N 35°17' E 139°41'0 0.0
2018-Jun-23 18:09N 35°17' E 139°41'0 0.0
2018-Jun-23 17:23N 35°17' E 139°41'0 0.0
2018-Jun-23 13:41N 35°17' E 139°41'0 0.0
2018-Jun-23 13:29N 35°17' E 139°41'0 0.0
2018-Jun-23 12:56N 35°17' E 139°41'0 0.0
2018-Jun-23 11:45N 35°17' E 139°41'0 0.0
2018-Jun-23 11:30N 35°17' E 139°41'0 0.0
2018-Jun-23 10:54N 35°17' E 139°41'0 0.0
2018-Jun-23 10:26N 35°17' E 139°41'0 0.0
2018-Jun-23 09:58N 35°17' E 139°41'0 0.0
2018-Jun-23 09:28N 35°17' E 139°41'0 0.0
2018-Jun-23 09:00N 35°17' E 139°41'0 0.0
2018-Jun-23 08:29N 35°17' E 139°41'0 0.0
2018-Jun-23 08:00N 35°17' E 139°41'0 0.0
2018-Jun-23 07:30N 35°17' E 139°41'0 0.0
2018-Jun-23 07:00N 35°17' E 139°41'0 0.0
2018-Jun-23 06:30N 35°17' E 139°41'0 0.0
2018-Jun-23 05:59N 35°17' E 139°41'0 0.0
2018-Jun-23 05:30N 35°17' E 139°41'0 0.0
2018-Jun-23 05:00N 35°17' E 139°41'0 0.0
2018-Jun-23 04:27N 35°17' E 139°41'0 0.0
2018-Jun-23 04:00N 35°17' E 139°41'0 0.0
2018-Jun-23 03:29N 35°17' E 139°41'0 0.0
2018-Jun-23 02:53N 35°17' E 139°41'0 0.0
2018-Jun-23 02:29N 35°17' E 139°41'0 0.0
2018-Jun-23 02:00N 35°17' E 139°41'0 0.0
2018-Jun-23 01:30N 35°17' E 139°41'3 6.0
2018-Jun-23 01:00N 35°20' E 139°42'5 9.2
2018-Jun-23 00:30N 35°23' E 139°46'3 6.3
2018-Jun-23 00:00N 35°20' E 139°44'10 6.2
2018-Jun-22 22:27N 35°11' E 139°47'3 6.3
2018-Jun-22 21:57N 35°13' E 139°46'5 9.8
2018-Jun-22 21:29N 35°18' E 139°44'3 5.8
2018-Jun-22 21:00N 35°20' E 139°43'11 8.0
2018-Jun-22 19:39N 35°10' E 139°47'2 8.1
2018-Jun-22 19:25N 35°12' E 139°46'3 2.1
2018-Jun-22 18:04N 35°13' E 139°43'0 0.0
2018-Jun-22 17:50N 35°13' E 139°43'0 0.0
2018-Jun-22 16:19N 35°13' E 139°43'0 0.0
2018-Jun-22 15:06N 35°13' E 139°43'0 0.0
2018-Jun-22 15:00N 35°13' E 139°43'0 0.0
2018-Jun-22 11:16N 35°13' E 139°43'2 9.1
2018-Jun-22 11:00N 35°12' E 139°46'5 8.5
2018-Jun-22 10:28N 35°17' E 139°45'612.3
2018-Jun-22 10:00N 35°22' E 139°42'4 8.6
2018-Jun-22 09:30N 35°26' E 139°42'0 0.8
2018-Jun-22 09:00N 35°26' E 139°42'0 0.1
2018-Jun-22 08:30N 35°26' E 139°42'2 4.6
2018-Jun-22 08:00N 35°24' E 139°42'510.2
2018-Jun-22 07:30N 35°19' E 139°43'710.2
2018-Jun-22 06:49N 35°12' E 139°46'3 9.3
2018-Jun-22 06:30N 35°15' E 139°46'612.2
2018-Jun-22 06:00N 35°20' E 139°42'4 8.6
2018-Jun-22 05:30N 35°24' E 139°40'1 1.5
2018-Jun-22 05:00N 35°24' E 139°39'0 0.2
2018-Jun-22 04:30N 35°24' E 139°39'4 8.2
2018-Jun-22 04:00N 35°20' E 139°41'3 6.0
2018-Jun-22 03:30N 35°17' E 139°41'0 0.0
2018-Jun-22 03:00N 35°17' E 139°41'0 0.1
2018-Jun-22 02:30N 35°17' E 139°41'0 0.0
2018-Jun-22 01:58N 35°17' E 139°41'0 0.1
2018-Jun-22 01:30N 35°17' E 139°41'0 0.0
2018-Jun-22 01:00N 35°17' E 139°41'0 0.0
2018-Jun-22 00:29N 35°17' E 139°41'0 0.0
2018-Jun-22 00:00N 35°17' E 139°41'0 0.1
2018-Jun-21 23:30N 35°17' E 139°41'0 0.0
2018-Jun-21 16:57N 35°17' E 139°41'0 0.0
2018-Jun-21 16:20N 35°17' E 139°41'0 0.0
2018-Jun-21 15:59N 35°17' E 139°41'0 0.0
2018-Jun-21 15:27N 35°17' E 139°41'0 0.0
2018-Jun-21 14:52N 35°17' E 139°41'0 0.0
2018-Jun-21 13:14N 35°17' E 139°41'0 0.0
2018-Jun-21 03:27N 35°17' E 139°41'0 0.0
2018-Jun-21 02:59N 35°17' E 139°41'0 0.0
2018-Jun-21 02:24N 35°17' E 139°41'2 5.0
2018-Jun-21 02:00N 35°19' E 139°42'3 6.7
2018-Jun-21 01:30N 35°22' E 139°42'4 8.5
2018-Jun-21 01:00N 35°18' E 139°44'5 3.5
2018-Jun-20 23:39N 35°14' E 139°46'314.5
2018-Jun-20 23:25N 35°17' E 139°44'614.5
2018-Jun-20 23:01N 35°22' E 139°42'3 5.7
2018-Jun-20 22:31N 35°20' E 139°43'11 9.4
2018-Jun-20 21:22N 35°10' E 139°47'3 7.2
2018-Jun-20 20:54N 35°13' E 139°46'2 4.7
2018-Jun-20 20:26N 35°13' E 139°43'0 0.0
2018-Jun-20 20:00N 35°13' E 139°43'0 0.0
2018-Jun-20 19:30N 35°13' E 139°43'0 0.0
2018-Jun-20 19:00N 35°13' E 139°43'0 0.0
2018-Jun-20 18:30N 35°13' E 139°43'0 0.0
2018-Jun-20 18:00N 35°13' E 139°43'0 0.0
2018-Jun-20 17:30N 35°13' E 139°43'0 0.0
2018-Jun-20 17:00N 35°13' E 139°43'0 0.0
2018-Jun-20 16:30N 35°13' E 139°43'0 0.0
2018-Jun-20 16:00N 35°13' E 139°43'0 0.0
2018-Jun-20 15:30N 35°13' E 139°43'0 0.0
2018-Jun-20 15:00N 35°13' E 139°43'0 0.0
2018-Jun-20 14:29N 35°13' E 139°43'0 0.0
2018-Jun-20 14:00N 35°13' E 139°43'0 0.0
2018-Jun-20 13:29N 35°13' E 139°43'0 0.0
2018-Jun-20 13:00N 35°13' E 139°43'0 0.0
2018-Jun-20 12:30N 35°13' E 139°43'0 0.0
2018-Jun-20 12:00N 35°13' E 139°43'0 0.0
2018-Jun-20 11:29N 35°13' E 139°43'0 0.0
2018-Jun-20 11:00N 35°13' E 139°43'0 0.0
2018-Jun-20 10:30N 35°13' E 139°43'0 0.4
2018-Jun-20 09:58N 35°13' E 139°43'3 5.7
2018-Jun-20 09:30N 35°14' E 139°46'612.5
2018-Jun-20 09:00N 35°20' E 139°43'612.5
2018-Jun-20 08:30N 35°26' E 139°42'1 1.4
2018-Jun-20 08:00N 35°26' E 139°42'0 0.5
2018-Jun-20 07:31N 35°26' E 139°42'2 3.9
2018-Jun-20 07:00N 35°27' E 139°40'0 0.8
2018-Jun-20 06:29N 35°27' E 139°40'0 0.6
2018-Jun-20 06:00N 35°27' E 139°40'2 3.9
2018-Jun-20 05:30N 35°26' E 139°42'1 1.4
2018-Jun-20 05:00N 35°26' E 139°42'4 8.3
2018-Jun-20 04:30N 35°21' E 139°41'4 7.9
2018-Jun-20 03:57N 35°17' E 139°41'0 0.0
2018-Jun-20 03:30N 35°17' E 139°41'0 0.0
2018-Jun-20 03:00N 35°17' E 139°41'0 0.0
2018-Jun-20 02:30N 35°17' E 139°41'0 0.0
2018-Jun-20 02:00N 35°17' E 139°41'0 0.0
2018-Jun-20 01:29N 35°17' E 139°41'0 0.0
2018-Jun-20 01:00N 35°17' E 139°41'0 0.0
2018-Jun-20 00:30N 35°17' E 139°41'0 0.0
2018-Jun-20 00:00N 35°17' E 139°41'0 0.0
2018-Jun-19 23:29N 35°17' E 139°41'0 0.3
2018-Jun-19 23:00N 35°17' E 139°41'0 0.3
2018-Jun-19 22:27N 35°17' E 139°41'0 0.0
2018-Jun-19 22:00N 35°17' E 139°41'0 0.0
2018-Jun-19 21:28N 35°17' E 139°41'0 0.0
2018-Jun-19 21:00N 35°17' E 139°41'0 0.0
2018-Jun-19 20:30N 35°17' E 139°41'0 0.0
2018-Jun-19 20:00N 35°17' E 139°41'0 0.0
2018-Jun-19 19:30N 35°17' E 139°41'0 0.0
2018-Jun-19 19:00N 35°17' E 139°41'0 0.0
2018-Jun-19 18:30N 35°17' E 139°41'0 0.0
2018-Jun-19 17:59N 35°17' E 139°41'0 0.0
2018-Jun-19 17:30N 35°17' E 139°41'0 0.0
2018-Jun-19 17:00N 35°17' E 139°41'0 0.0
2018-Jun-19 16:29N 35°17' E 139°41'0 0.0
2018-Jun-19 16:00N 35°17' E 139°41'0 0.0
2018-Jun-19 15:30N 35°17' E 139°41'0 0.0
2018-Jun-19 14:59N 35°17' E 139°41'0 0.0
2018-Jun-19 14:26N 35°17' E 139°41'0 0.0
2018-Jun-19 14:00N 35°17' E 139°41'0 0.0
2018-Jun-19 13:28N 35°17' E 139°41'0 0.0
2018-Jun-19 12:59N 35°17' E 139°41'0 0.0
2018-Jun-19 12:29N 35°17' E 139°41'0 0.0
2018-Jun-19 12:00N 35°17' E 139°41'0 0.0
2018-Jun-19 11:30N 35°17' E 139°41'0 0.0
2018-Jun-19 10:55N 35°17' E 139°41'0 0.0
2018-Jun-19 10:30N 35°17' E 139°41'0 0.0
2018-Jun-19 09:59N 35°17' E 139°41'0 0.0
2018-Jun-19 09:29N 35°17' E 139°41'0 0.0
2018-Jun-19 09:00N 35°17' E 139°41'0 0.0
2018-Jun-19 08:29N 35°17' E 139°41'0 0.0
2018-Jun-19 08:00N 35°17' E 139°41'0 0.0
2018-Jun-19 07:30N 35°17' E 139°41'0 0.0
2018-Jun-19 07:00N 35°17' E 139°41'0 0.0
2018-Jun-19 06:30N 35°17' E 139°41'0 0.0
2018-Jun-19 06:00N 35°17' E 139°41'0 0.0
2018-Jun-19 05:30N 35°17' E 139°41'0 0.0
2018-Jun-19 05:00N 35°17' E 139°41'0 0.0
2018-Jun-19 04:30N 35°17' E 139°41'0 0.0
2018-Jun-19 04:00N 35°17' E 139°41'0 0.0
2018-Jun-19 03:30N 35°17' E 139°41'0 0.0
2018-Jun-19 03:00N 35°17' E 139°41'4 7.4
2018-Jun-19 02:30N 35°16' E 139°45'4 8.2
2018-Jun-19 02:00N 35°12' E 139°46'611.6
2018-Jun-19 01:30N 35°18' E 139°45'611.5
2018-Jun-19 01:00N 35°23' E 139°42'5 9.5
2018-Jun-19 00:30N 35°26' E 139°47'5 9.8
2018-Jun-19 00:00N 35°21' E 139°49'0 0.7
2018-Jun-18 23:31N 35°21' E 139°49'2 3.6
2018-Jun-18 23:00N 35°22' E 139°47'610.7
2018-Jun-18 22:27N 35°18' E 139°42'1 2.5
2018-Jun-18 22:00N 35°17' E 139°41'0 0.0
2018-Jun-18 21:30N 35°17' E 139°41'0 0.0
2018-Jun-18 20:59N 35°17' E 139°41'0 0.0
2018-Jun-18 20:30N 35°17' E 139°41'0 0.0
2018-Jun-18 20:00N 35°17' E 139°41'0 0.0
2018-Jun-18 19:30N 35°17' E 139°41'0 0.0
2018-Jun-18 18:54N 35°17' E 139°41'0 0.0
2018-Jun-18 18:30N 35°17' E 139°41'0 0.0
2018-Jun-18 18:00N 35°17' E 139°41'0 0.0
2018-Jun-18 17:30N 35°17' E 139°41'0 0.0
2018-Jun-18 17:00N 35°17' E 139°41'0 0.0
2018-Jun-18 16:30N 35°17' E 139°41'0 0.0
2018-Jun-18 16:00N 35°17' E 139°41'0 0.0
2018-Jun-18 15:30N 35°17' E 139°41'0 0.0
2018-Jun-18 15:00N 35°17' E 139°41'0 0.0
2018-Jun-18 14:30N 35°17' E 139°41'0 0.0
2018-Jun-18 14:00N 35°17' E 139°41'0 0.0
2018-Jun-18 13:30N 35°17' E 139°41'0 0.0
2018-Jun-18 12:59N 35°17' E 139°41'0 0.0
2018-Jun-18 12:30N 35°17' E 139°41'0 0.0
2018-Jun-18 11:58N 35°17' E 139°41'0 0.0
2018-Jun-18 11:25N 35°17' E 139°41'0 0.0
2018-Jun-18 11:00N 35°17' E 139°41'0 0.0
2018-Jun-18 10:30N 35°17' E 139°41'0 0.0
2018-Jun-18 10:00N 35°17' E 139°41'0 0.0
2018-Jun-18 09:30N 35°17' E 139°41'0 0.0
2018-Jun-18 09:00N 35°17' E 139°41'3 6.7
2018-Jun-18 08:30N 35°16' E 139°45'3 5.5
2018-Jun-18 08:00N 35°14' E 139°46'611.4
2018-Jun-18 07:30N 35°19' E 139°43'5 9.2
2018-Jun-18 07:00N 35°23' E 139°41'0 0.8
2018-Jun-18 06:30N 35°23' E 139°40'1 1.3
2018-Jun-18 06:00N 35°23' E 139°40'0 0.0
2018-Jun-18 05:30N 35°23' E 139°40'0 0.0
2018-Jun-18 05:00N 35°23' E 139°40'0 0.0
2018-Jun-18 04:30N 35°23' E 139°40'0 0.0
2018-Jun-18 04:00N 35°23' E 139°40'3 5.5
2018-Jun-18 03:29N 35°20' E 139°41'510.3
2018-Jun-18 02:59N 35°16' E 139°45'2 4.4
2018-Jun-18 02:29N 35°14' E 139°46'612.3
2018-Jun-18 02:00N 35°19' E 139°43'612.0
2018-Jun-18 01:30N 35°25' E 139°43'3 5.5
2018-Jun-18 01:00N 35°28' E 139°44'0 0.3
2018-Jun-18 00:30N 35°28' E 139°44'1 1.1
2018-Jun-18 00:00N 35°27' E 139°44'4 8.1
2018-Jun-17 23:30N 35°23' E 139°46'510.7
2018-Jun-17 23:00N 35°18' E 139°45'6 6.0
2018-Jun-17 21:57N 35°12' E 139°46'710.9
2018-Jun-17 21:22N 35°18' E 139°42'2 4.5
2018-Jun-17 21:00N 35°17' E 139°41'0 0.0
2018-Jun-17 20:28N 35°17' E 139°41'0 0.0
2018-Jun-17 20:00N 35°17' E 139°41'0 0.0
2018-Jun-17 19:30N 35°17' E 139°41'0 0.0
2018-Jun-17 19:00N 35°17' E 139°41'0 0.0
2018-Jun-17 18:30N 35°17' E 139°41'0 0.0
2018-Jun-17 18:00N 35°17' E 139°41'0 0.0
2018-Jun-17 17:28N 35°17' E 139°41'0 0.0
2018-Jun-17 17:00N 35°17' E 139°41'0 0.0
2018-Jun-17 16:30N 35°17' E 139°41'0 0.0
2018-Jun-17 16:00N 35°17' E 139°41'0 0.0
2018-Jun-17 15:30N 35°17' E 139°41'0 0.0
2018-Jun-17 14:58N 35°17' E 139°41'0 0.0
2018-Jun-17 14:28N 35°17' E 139°41'0 0.0
2018-Jun-17 13:52N 35°17' E 139°41'0 0.0
2018-Jun-17 13:29N 35°17' E 139°41'0 0.0
2018-Jun-17 12:34N 35°17' E 139°41'0 0.0
2018-Jun-17 12:30N 35°17' E 139°41'0 0.0
2018-Jun-17 11:59N 35°17' E 139°41'0 0.0
2018-Jun-17 11:19N 35°17' E 139°41'0 0.0
2018-Jun-17 10:41N 35°17' E 139°41'0 0.0
2018-Jun-17 10:29N 35°17' E 139°41'0 0.0
2018-Jun-17 06:03N 35°17' E 139°41'0 0.0
2018-Jun-17 05:54N 35°17' E 139°41'0 0.0
2018-Jun-17 05:30N 35°17' E 139°41'0 0.0
2018-Jun-17 05:00N 35°17' E 139°41'0 0.0
2018-Jun-17 04:30N 35°17' E 139°41'0 0.0
2018-Jun-17 04:00N 35°17' E 139°41'0 0.0
2018-Jun-17 03:30N 35°17' E 139°41'4 8.1
2018-Jun-17 03:00N 35°21' E 139°42'611.3
2018-Jun-17 02:30N 35°26' E 139°45'3 5.4
2018-Jun-17 02:00N 35°24' E 139°46'510.6
2018-Jun-17 01:30N 35°18' E 139°44'8 7.3
2018-Jun-17 00:21N 35°10' E 139°47'4 9.9
2018-Jun-16 23:54N 35°13' E 139°43'0 0.6
2018-Jun-16 23:29N 35°13' E 139°43'0 0.6
2018-Jun-16 22:59N 35°13' E 139°43'2 5.3
2018-Jun-16 22:30N 35°14' E 139°46'612.2
2018-Jun-16 22:00N 35°19' E 139°43'510.7
2018-Jun-16 21:31N 35°25' E 139°44'2 3.6
2018-Jun-16 21:01N 35°23' E 139°43'5 9.7
2018-Jun-16 20:31N 35°18' E 139°42'1 3.0
2018-Jun-16 20:00N 35°17' E 139°41'0 0.0
2018-Jun-16 19:30N 35°17' E 139°41'0 0.0
2018-Jun-16 19:00N 35°17' E 139°41'0 0.0
2018-Jun-16 18:30N 35°17' E 139°41'0 0.0
2018-Jun-16 17:58N 35°17' E 139°41'0 0.0
2018-Jun-16 17:26N 35°17' E 139°41'0 0.0
2018-Jun-16 17:00N 35°17' E 139°41'0 0.0
2018-Jun-16 16:29N 35°17' E 139°41'0 0.0
2018-Jun-16 15:59N 35°17' E 139°41'0 0.0
2018-Jun-16 15:28N 35°17' E 139°41'0 0.0
2018-Jun-16 15:00N 35°17' E 139°41'0 0.0
2018-Jun-16 14:29N 35°17' E 139°41'0 0.0
2018-Jun-16 13:57N 35°17' E 139°41'0 0.0
2018-Jun-16 13:21N 35°17' E 139°41'0 0.0
2018-Jun-16 12:46N 35°17' E 139°41'0 0.0
2018-Jun-16 12:30N 35°17' E 139°41'0 0.0
2018-Jun-16 11:58N 35°17' E 139°41'0 0.0
2018-Jun-16 11:28N 35°17' E 139°41'0 0.2
2018-Jun-16 11:00N 35°17' E 139°41'4 8.5
2018-Jun-16 10:30N 35°15' E 139°45'1 2.2
2018-Jun-16 10:00N 35°15' E 139°46'611.9
2018-Jun-16 09:30N 35°20' E 139°43'5 9.4
2018-Jun-16 09:00N 35°24' E 139°44'0 0.7
2018-Jun-16 08:30N 35°24' E 139°44'1 2.4
2018-Jun-16 08:00N 35°23' E 139°44'5 9.6
2018-Jun-16 07:30N 35°18' E 139°45'810.4
2018-Jun-16 06:42N 35°10' E 139°47'1 4.4
2018-Jun-16 06:30N 35°11' E 139°46'3 6.3
2018-Jun-16 05:57N 35°13' E 139°43'4 7.5
2018-Jun-16 05:21N 35°18' E 139°42'1 3.9
2018-Jun-16 05:00N 35°17' E 139°41'0 0.0
2018-Jun-16 04:30N 35°17' E 139°41'0 0.0
2018-Jun-16 04:00N 35°17' E 139°41'0 0.4
2018-Jun-16 03:30N 35°17' E 139°41'510.0
2018-Jun-16 03:01N 35°22' E 139°43'2 4.6
2018-Jun-16 02:30N 35°22' E 139°45'4 8.1
2018-Jun-16 02:00N 35°18' E 139°44'611.0
2018-Jun-16 01:27N 35°13' E 139°47'2 2.4
2018-Jun-16 00:42N 35°11' E 139°46'313.0
2018-Jun-16 00:30N 35°14' E 139°45'510.2
2018-Jun-16 00:00N 35°17' E 139°41'0 0.9
2018-Jun-15 23:30N 35°17' E 139°41'0 0.0
2018-Jun-15 23:00N 35°17' E 139°41'0 0.0
2018-Jun-15 22:30N 35°17' E 139°41'0 0.0
2018-Jun-15 20:53N 35°17' E 139°41'0 0.0
2018-Jun-15 16:16N 35°17' E 139°41'0 0.0
2018-Jun-15 15:52N 35°17' E 139°41'0 0.0
2018-Jun-15 15:25N 35°17' E 139°41'0 0.0
2018-Jun-15 07:49N 35°17' E 139°41'0 0.0
2018-Jun-15 07:30N 35°17' E 139°41'1 1.9
2018-Jun-15 07:00N 35°18' E 139°41'510.7
2018-Jun-15 06:30N 35°22' E 139°44'510.5
2018-Jun-15 06:00N 35°25' E 139°50'1 1.0
2018-Jun-15 04:41N 35°26' E 139°48'211.7
2018-Jun-15 04:30N 35°24' E 139°46'611.6
2018-Jun-15 04:00N 35°19' E 139°44'910.2
2018-Jun-15 03:09N 35°10' E 139°47'1 5.3
2018-Jun-15 03:01N 35°10' E 139°47'4 7.5
2018-Jun-15 02:27N 35°14' E 139°46'510.7
2018-Jun-15 02:00N 35°18' E 139°42'1 0.4
2018-Jun-14 23:11N 35°17' E 139°41'0 0.0
2018-Jun-14 23:00N 35°17' E 139°41'0 0.0
2018-Jun-14 22:27N 35°17' E 139°41'0 0.0
2018-Jun-14 22:00N 35°17' E 139°41'0 0.0
2018-Jun-14 21:30N 35°17' E 139°41'0 0.0
2018-Jun-14 21:00N 35°17' E 139°41'0 0.0
2018-Jun-14 20:28N 35°17' E 139°41'0 0.0
2018-Jun-14 19:59N 35°17' E 139°41'0 0.0
2018-Jun-14 19:30N 35°17' E 139°41'0 0.0
2018-Jun-14 18:59N 35°17' E 139°41'0 0.0
2018-Jun-14 18:18N 35°17' E 139°41'0 0.0
2018-Jun-14 17:41N 35°17' E 139°41'0 0.0
2018-Jun-14 17:23N 35°17' E 139°41'0 0.0
2018-Jun-14 16:58N 35°17' E 139°41'0 0.0
2018-Jun-14 16:29N 35°17' E 139°41'0 0.0
2018-Jun-14 15:54N 35°17' E 139°41'0 0.0
2018-Jun-14 15:28N 35°17' E 139°41'0 0.0
2018-Jun-14 15:00N 35°17' E 139°41'0 0.0
2018-Jun-14 14:30N 35°17' E 139°41'0 0.0
2018-Jun-14 13:59N 35°17' E 139°41'0 0.0
2018-Jun-14 13:30N 35°17' E 139°41'0 0.0
2018-Jun-14 13:00N 35°17' E 139°41'0 0.0
2018-Jun-14 12:29N 35°17' E 139°41'0 0.0
2018-Jun-14 11:59N 35°17' E 139°41'0 0.0
2018-Jun-14 11:30N 35°17' E 139°41'0 0.0
2018-Jun-14 11:00N 35°17' E 139°41'0 0.0
2018-Jun-14 10:30N 35°17' E 139°41'0 0.0
2018-Jun-14 09:56N 35°17' E 139°41'0 0.0
2018-Jun-14 09:29N 35°17' E 139°41'0 0.0
2018-Jun-14 08:59N 35°17' E 139°41'0 0.0
2018-Jun-14 08:13N 35°17' E 139°41'0 0.0
2018-Jun-14 07:58N 35°17' E 139°41'0 0.0
2018-Jun-14 07:27N 35°17' E 139°41'0 0.0
2018-Jun-14 06:51N 35°17' E 139°41'0 0.0
2018-Jun-14 06:27N 35°17' E 139°41'4 9.2
2018-Jun-14 06:00N 35°21' E 139°41'  

Dump ship's entire track history